sensor_id;sensor_type;location;lat;lon;timestamp;pressure;altitude;pressure_sealevel;temperature;humidity
10392;BME280;5242;49.244;6.774;2023-04-10T00:04:47;100103.84;;;3.65;nan
10392;BME280;5242;49.244;6.774;2023-04-10T00:12:39;100093.59;;;3.48;nan
10392;BME280;5242;49.244;6.774;2023-04-10T00:20:31;100095.66;;;3.38;nan
10392;BME280;5242;49.244;6.774;2023-04-10T00:28:23;100091.34;;;3.37;nan
10392;BME280;5242;49.244;6.774;2023-04-10T00:36:15;100088.78;;;3.26;nan
10392;BME280;5242;49.244;6.774;2023-04-10T00:44:07;100092.50;;;3.31;nan
10392;BME280;5242;49.244;6.774;2023-04-10T00:52:00;100091.84;;;3.39;nan
10392;BME280;5242;49.244;6.774;2023-04-10T00:59:52;100084.28;;;3.41;nan
10392;BME280;5242;49.244;6.774;2023-04-10T01:07:52;100080.28;;;3.19;nan
10392;BME280;5242;49.244;6.774;2023-04-10T01:32:13;100065.13;;;2.86;nan
10392;BME280;5242;49.244;6.774;2023-04-10T01:40:09;100058.94;;;2.85;nan
10392;BME280;5242;49.244;6.774;2023-04-10T01:48:04;100046.00;;;2.87;nan
10392;BME280;5242;49.244;6.774;2023-04-10T01:55:57;100038.88;;;2.96;nan
10392;BME280;5242;49.244;6.774;2023-04-10T02:03:49;100031.31;;;2.98;nan
10392;BME280;5242;49.244;6.774;2023-04-10T02:11:57;100024.69;;;2.91;nan
10392;BME280;5242;49.244;6.774;2023-04-10T02:19:53;100018.13;;;2.78;nan
10392;BME280;5242;49.244;6.774;2023-04-10T02:27:46;100014.66;;;2.77;nan
10392;BME280;5242;49.244;6.774;2023-04-10T02:35:38;100009.13;;;2.88;nan
10392;BME280;5242;49.244;6.774;2023-04-10T02:43:29;100008.94;;;2.84;nan
10392;BME280;5242;49.244;6.774;2023-04-10T02:51:21;100021.13;;;2.76;nan
10392;BME280;5242;49.244;6.774;2023-04-10T02:59:13;100019.44;;;2.80;nan
10392;BME280;5242;49.244;6.774;2023-04-10T03:07:05;100020.81;;;2.78;nan
10392;BME280;5242;49.244;6.774;2023-04-10T03:14:57;100017.41;;;2.72;nan
10392;BME280;5242;49.244;6.774;2023-04-10T03:22:49;100014.19;;;2.51;nan
10392;BME280;5242;49.244;6.774;2023-04-10T03:30:41;100005.94;;;2.43;nan
10392;BME280;5242;49.244;6.774;2023-04-10T03:38:33;99996.06;;;2.38;nan
10392;BME280;5242;49.244;6.774;2023-04-10T03:46:25;99999.03;;;2.36;nan
10392;BME280;5242;49.244;6.774;2023-04-10T03:54:17;99988.28;;;2.36;nan
10392;BME280;5242;49.244;6.774;2023-04-10T04:02:09;99980.34;;;2.26;nan
10392;BME280;5242;49.244;6.774;2023-04-10T04:10:01;99978.28;;;2.18;nan
10392;BME280;5242;49.244;6.774;2023-04-10T04:17:53;99976.06;;;2.01;nan
10392;BME280;5242;49.244;6.774;2023-04-10T04:25:45;99985.53;;;1.93;nan
10392;BME280;5242;49.244;6.774;2023-04-10T04:33:37;99993.53;;;1.99;nan
10392;BME280;5242;49.244;6.774;2023-04-10T04:41:29;100001.91;;;1.97;nan
10392;BME280;5242;49.244;6.774;2023-04-10T04:49:23;100000.72;;;1.79;nan
10392;BME280;5242;49.244;6.774;2023-04-10T04:57:15;99999.00;;;1.64;nan
10392;BME280;5242;49.244;6.774;2023-04-10T05:05:07;99997.72;;;1.57;nan
10392;BME280;5242;49.244;6.774;2023-04-10T05:12:58;100004.09;;;1.61;nan
10392;BME280;5242;49.244;6.774;2023-04-10T05:20:51;99998.16;;;1.69;nan
10392;BME280;5242;49.244;6.774;2023-04-10T05:28:42;100002.28;;;1.85;nan
10392;BME280;5242;49.244;6.774;2023-04-10T05:36:34;100000.44;;;2.10;nan
10392;BME280;5242;49.244;6.774;2023-04-10T05:44:27;100019.50;;;2.32;nan
10392;BME280;5242;49.244;6.774;2023-04-10T05:52:19;100017.03;;;2.60;nan
10392;BME280;5242;49.244;6.774;2023-04-10T06:00:11;100029.63;;;2.83;nan
10392;BME280;5242;49.244;6.774;2023-04-10T06:08:03;100019.16;;;3.01;nan
10392;BME280;5242;49.244;6.774;2023-04-10T06:15:55;100021.84;;;3.39;nan
10392;BME280;5242;49.244;6.774;2023-04-10T06:23:47;100027.97;;;3.91;nan
10392;BME280;5242;49.244;6.774;2023-04-10T06:31:39;100016.41;;;4.60;nan
10392;BME280;5242;49.244;6.774;2023-04-10T06:39:30;100008.16;;;5.29;nan
10392;BME280;5242;49.244;6.774;2023-04-10T06:47:22;99998.19;;;6.14;nan
10392;BME280;5242;49.244;6.774;2023-04-10T06:55:14;99989.31;;;7.06;nan
10392;BME280;5242;49.244;6.774;2023-04-10T07:03:06;99975.97;;;8.21;nan
10392;BME280;5242;49.244;6.774;2023-04-10T07:10:58;99960.72;;;9.09;nan
10392;BME280;5242;49.244;6.774;2023-04-10T07:18:50;99951.22;;;9.94;nan
10392;BME280;5242;49.244;6.774;2023-04-10T07:26:45;99940.06;;;10.85;nan
10392;BME280;5242;49.244;6.774;2023-04-10T07:34:37;99950.22;;;11.72;nan
10392;BME280;5242;49.244;6.774;2023-04-10T07:42:29;99946.13;;;12.61;nan
10392;BME280;5242;49.244;6.774;2023-04-10T07:50:21;99932.59;;;12.88;nan
10392;BME280;5242;49.244;6.774;2023-04-10T07:58:13;99931.09;;;13.95;nan
10392;BME280;5242;49.244;6.774;2023-04-10T08:06:06;99923.16;;;15.30;nan
10392;BME280;5242;49.244;6.774;2023-04-10T08:14:00;99917.56;;;17.87;nan
10392;BME280;5242;49.244;6.774;2023-04-10T08:21:52;99910.13;;;19.85;nan
10392;BME280;5242;49.244;6.774;2023-04-10T08:29:44;99894.22;;;21.37;nan
10392;BME280;5242;49.244;6.774;2023-04-10T08:37:36;99900.13;;;20.78;nan
10392;BME280;5242;49.244;6.774;2023-04-10T08:45:28;99894.56;;;21.39;nan
10392;BME280;5242;49.244;6.774;2023-04-10T08:53:22;99892.09;;;21.96;nan
10392;BME280;5242;49.244;6.774;2023-04-10T09:01:15;99882.47;;;22.27;nan
10392;BME280;5242;49.244;6.774;2023-04-10T09:09:07;99864.69;;;22.25;nan
10392;BME280;5242;49.244;6.774;2023-04-10T09:17:20;99861.13;;;22.01;nan
10392;BME280;5242;49.244;6.774;2023-04-10T09:25:28;99844.19;;;21.21;nan
10392;BME280;5242;49.244;6.774;2023-04-10T09:33:25;99834.19;;;19.52;nan
10392;BME280;5242;49.244;6.774;2023-04-10T09:41:21;99837.75;;;18.89;nan
10392;BME280;5242;49.244;6.774;2023-04-10T09:49:12;99832.81;;;19.78;nan
10392;BME280;5242;49.244;6.774;2023-04-10T09:57:05;99828.97;;;21.83;nan
10392;BME280;5242;49.244;6.774;2023-04-10T10:04:59;99829.97;;;22.56;nan
10392;BME280;5242;49.244;6.774;2023-04-10T10:12:56;99811.47;;;23.06;nan
10392;BME280;5242;49.244;6.774;2023-04-10T10:20:49;99812.41;;;22.79;nan
10392;BME280;5242;49.244;6.774;2023-04-10T10:28:43;99799.38;;;22.40;nan
10392;BME280;5242;49.244;6.774;2023-04-10T10:36:39;99811.84;;;21.88;nan
10392;BME280;5242;49.244;6.774;2023-04-10T10:44:43;99790.56;;;22.45;nan
10392;BME280;5242;49.244;6.774;2023-04-10T11:08:52;99765.41;;;25.09;nan
10392;BME280;5242;49.244;6.774;2023-04-10T11:16:46;99731.97;;;24.03;nan
10392;BME280;5242;49.244;6.774;2023-04-10T11:24:54;99741.16;;;23.26;nan
10392;BME280;5242;49.244;6.774;2023-04-10T11:32:48;99722.72;;;24.48;nan
10392;BME280;5242;49.244;6.774;2023-04-10T11:41:02;99710.66;;;25.03;nan
10392;BME280;5242;49.244;6.774;2023-04-10T11:48:58;99692.63;;;25.20;nan
10392;BME280;5242;49.244;6.774;2023-04-10T12:04:56;99701.31;;;23.16;nan
10392;BME280;5242;49.244;6.774;2023-04-10T12:12:48;99697.09;;;22.22;nan
10392;BME280;5242;49.244;6.774;2023-04-10T12:20:40;99690.06;;;22.54;nan
10392;BME280;5242;49.244;6.774;2023-04-10T12:28:32;99673.63;;;22.96;nan
10392;BME280;5242;49.244;6.774;2023-04-10T12:36:26;99660.88;;;23.44;nan
10392;BME280;5242;49.244;6.774;2023-04-10T12:44:21;99654.97;;;24.00;nan
10392;BME280;5242;49.244;6.774;2023-04-10T12:52:21;99661.97;;;23.92;nan
10392;BME280;5242;49.244;6.774;2023-04-10T13:00:15;99663.56;;;23.02;nan
10392;BME280;5242;49.244;6.774;2023-04-10T13:08:07;99641.84;;;22.64;nan
10392;BME280;5242;49.244;6.774;2023-04-10T13:15:59;99634.59;;;22.70;nan
10392;BME280;5242;49.244;6.774;2023-04-10T13:23:51;99617.13;;;22.70;nan
10392;BME280;5242;49.244;6.774;2023-04-10T13:31:43;99609.66;;;22.67;nan
10392;BME280;5242;49.244;6.774;2023-04-10T13:39:35;99604.34;;;21.67;nan
10392;BME280;5242;49.244;6.774;2023-04-10T13:47:27;99610.69;;;21.24;nan
10392;BME280;5242;49.244;6.774;2023-04-10T13:55:18;99580.50;;;20.86;nan
10392;BME280;5242;49.244;6.774;2023-04-10T14:03:11;99558.75;;;20.65;nan
10392;BME280;5242;49.244;6.774;2023-04-10T14:11:03;99559.19;;;20.36;nan
10392;BME280;5242;49.244;6.774;2023-04-10T14:18:55;99539.00;;;20.12;nan
10392;BME280;5242;49.244;6.774;2023-04-10T14:26:47;99517.25;;;20.14;nan
10392;BME280;5242;49.244;6.774;2023-04-10T14:34:39;99491.88;;;20.23;nan
10392;BME280;5242;49.244;6.774;2023-04-10T14:42:31;99504.13;;;20.22;nan
10392;BME280;5242;49.244;6.774;2023-04-10T14:50:23;99506.94;;;19.91;nan
10392;BME280;5242;49.244;6.774;2023-04-10T14:58:15;99518.63;;;19.44;nan
10392;BME280;5242;49.244;6.774;2023-04-10T15:06:07;99525.19;;;19.23;nan
10392;BME280;5242;49.244;6.774;2023-04-10T15:13:58;99485.47;;;19.14;nan
10392;BME280;5242;49.244;6.774;2023-04-10T15:21:51;99471.22;;;19.19;nan
10392;BME280;5242;49.244;6.774;2023-04-10T15:29:42;99461.16;;;19.32;nan
10392;BME280;5242;49.244;6.774;2023-04-10T15:37:34;99458.25;;;19.12;nan
10392;BME280;5242;49.244;6.774;2023-04-10T15:45:27;99449.34;;;18.63;nan
10392;BME280;5242;49.244;6.774;2023-04-10T15:53:19;99430.00;;;18.29;nan
10392;BME280;5242;49.244;6.774;2023-04-10T16:01:11;99409.72;;;18.04;nan
10392;BME280;5242;49.244;6.774;2023-04-10T16:09:02;99443.00;;;17.79;nan
10392;BME280;5242;49.244;6.774;2023-04-10T16:17:13;99439.16;;;17.59;nan
10392;BME280;5242;49.244;6.774;2023-04-10T16:25:05;99429.06;;;17.34;nan
10392;BME280;5242;49.244;6.774;2023-04-10T16:32:57;99401.66;;;17.16;nan
10392;BME280;5242;49.244;6.774;2023-04-10T16:40:49;99404.84;;;17.04;nan
10392;BME280;5242;49.244;6.774;2023-04-10T16:48:41;99377.41;;;16.90;nan
10392;BME280;5242;49.244;6.774;2023-04-10T16:56:32;99373.09;;;16.89;nan
10392;BME280;5242;49.244;6.774;2023-04-10T17:04:24;99339.75;;;16.80;nan
10392;BME280;5242;49.244;6.774;2023-04-10T17:12:17;99317.00;;;16.61;nan
10392;BME280;5242;49.244;6.774;2023-04-10T17:20:09;99302.16;;;16.44;nan
10392;BME280;5242;49.244;6.774;2023-04-10T17:28:01;99322.63;;;16.25;nan
10392;BME280;5242;49.244;6.774;2023-04-10T17:35:54;99334.47;;;15.94;nan
10392;BME280;5242;49.244;6.774;2023-04-10T17:43:47;99338.75;;;15.66;nan
10392;BME280;5242;49.244;6.774;2023-04-10T17:51:38;99341.09;;;15.46;nan
10392;BME280;5242;49.244;6.774;2023-04-10T17:59:32;99302.31;;;15.37;nan
10392;BME280;5242;49.244;6.774;2023-04-10T18:07:24;99301.91;;;15.24;nan
10392;BME280;5242;49.244;6.774;2023-04-10T18:15:16;99335.16;;;15.05;nan
10392;BME280;5242;49.244;6.774;2023-04-10T18:23:07;99335.09;;;14.79;nan
10392;BME280;5242;49.244;6.774;2023-04-10T18:30:59;99332.31;;;14.69;nan
10392;BME280;5242;49.244;6.774;2023-04-10T18:38:51;99338.16;;;14.67;nan
10392;BME280;5242;49.244;6.774;2023-04-10T18:46:43;99342.03;;;14.55;nan
10392;BME280;5242;49.244;6.774;2023-04-10T18:54:44;99342.72;;;14.38;nan
10392;BME280;5242;49.244;6.774;2023-04-10T19:02:36;99320.34;;;14.29;nan
10392;BME280;5242;49.244;6.774;2023-04-10T19:10:28;99284.72;;;14.22;nan
10392;BME280;5242;49.244;6.774;2023-04-10T19:18:20;99301.88;;;14.15;nan
10392;BME280;5242;49.244;6.774;2023-04-10T19:26:11;99305.00;;;14.10;nan
10392;BME280;5242;49.244;6.774;2023-04-10T19:34:03;99290.13;;;14.07;nan
10392;BME280;5242;49.244;6.774;2023-04-10T19:41:59;99294.78;;;14.03;nan
10392;BME280;5242;49.244;6.774;2023-04-10T19:49:52;99272.50;;;14.01;nan
10392;BME280;5242;49.244;6.774;2023-04-10T19:57:44;99260.72;;;13.97;nan
10392;BME280;5242;49.244;6.774;2023-04-10T20:05:36;99261.09;;;13.96;nan
10392;BME280;5242;49.244;6.774;2023-04-10T20:13:28;99271.25;;;13.95;nan
10392;BME280;5242;49.244;6.774;2023-04-10T20:21:20;99263.41;;;13.90;nan
10392;BME280;5242;49.244;6.774;2023-04-10T20:29:12;99257.88;;;13.76;nan
10392;BME280;5242;49.244;6.774;2023-04-10T20:37:04;99249.41;;;13.43;nan
10392;BME280;5242;49.244;6.774;2023-04-10T20:44:56;99251.13;;;13.14;nan
10392;BME280;5242;49.244;6.774;2023-04-10T20:52:48;99215.78;;;12.95;nan
10392;BME280;5242;49.244;6.774;2023-04-10T21:00:39;99194.59;;;12.81;nan
10392;BME280;5242;49.244;6.774;2023-04-10T21:08:32;99183.63;;;12.77;nan
10392;BME280;5242;49.244;6.774;2023-04-10T21:16:23;99189.97;;;12.89;nan
10392;BME280;5242;49.244;6.774;2023-04-10T21:24:15;99185.38;;;13.00;nan
10392;BME280;5242;49.244;6.774;2023-04-10T21:32:07;99139.03;;;13.14;nan
10392;BME280;5242;49.244;6.774;2023-04-10T21:39:59;99163.34;;;13.26;nan
10392;BME280;5242;49.244;6.774;2023-04-10T21:47:51;99210.69;;;13.38;nan
10392;BME280;5242;49.244;6.774;2023-04-10T21:55:43;99244.06;;;13.13;nan
10392;BME280;5242;49.244;6.774;2023-04-10T22:03:35;99246.66;;;12.58;nan
10392;BME280;5242;49.244;6.774;2023-04-10T22:11:27;99261.66;;;12.07;nan
10392;BME280;5242;49.244;6.774;2023-04-10T22:19:19;99278.31;;;11.75;nan
10392;BME280;5242;49.244;6.774;2023-04-10T22:27:11;99284.66;;;11.57;nan
10392;BME280;5242;49.244;6.774;2023-04-10T22:35:03;99291.78;;;11.38;nan
10392;BME280;5242;49.244;6.774;2023-04-10T22:42:55;99271.31;;;11.25;nan
10392;BME280;5242;49.244;6.774;2023-04-10T22:50:47;99288.66;;;11.17;nan
10392;BME280;5242;49.244;6.774;2023-04-10T22:58:39;99273.31;;;11.05;nan
10392;BME280;5242;49.244;6.774;2023-04-10T23:06:31;99270.88;;;11.00;nan
10392;BME280;5242;49.244;6.774;2023-04-10T23:14:23;99234.41;;;10.85;nan
10392;BME280;5242;49.244;6.774;2023-04-10T23:22:14;99214.97;;;10.63;nan
10392;BME280;5242;49.244;6.774;2023-04-10T23:30:06;99215.00;;;10.44;nan
10392;BME280;5242;49.244;6.774;2023-04-10T23:37:58;99228.41;;;10.33;nan
10392;BME280;5242;49.244;6.774;2023-04-10T23:45:51;99243.91;;;10.33;nan
10392;BME280;5242;49.244;6.774;2023-04-10T23:53:43;99236.19;;;10.35;nan
